sensor_id;sensor_type;location;lat;lon;timestamp;pressure;altitude;pressure_sealevel;temperature;humidity
26807;BME280;14380;49.910;6.792;2023-03-05T00:01:12;99245.81;;;5.08;100.00
26807;BME280;14380;49.910;6.792;2023-03-05T00:03:39;99249.09;;;4.80;100.00
26807;BME280;14380;49.910;6.792;2023-03-05T00:06:06;99245.53;;;4.83;100.00
26807;BME280;14380;49.910;6.792;2023-03-05T00:08:33;99247.19;;;4.87;100.00
26807;BME280;14380;49.910;6.792;2023-03-05T00:11:02;99240.31;;;4.83;100.00
26807;BME280;14380;49.910;6.792;2023-03-05T00:13:30;99248.38;;;4.73;100.00
26807;BME280;14380;49.910;6.792;2023-03-05T00:15:57;99245.41;;;4.89;100.00
26807;BME280;14380;49.910;6.792;2023-03-05T00:18:24;99247.94;;;4.92;100.00
26807;BME280;14380;49.910;6.792;2023-03-05T00:20:50;99239.56;;;4.78;100.00
26807;BME280;14380;49.910;6.792;2023-03-05T00:23:17;99253.59;;;4.73;100.00
26807;BME280;14380;49.910;6.792;2023-03-05T00:25:43;99237.78;;;4.80;100.00
26807;BME280;14380;49.910;6.792;2023-03-05T00:28:11;99240.25;;;4.86;100.00
26807;BME280;14380;49.910;6.792;2023-03-05T00:30:39;99245.75;;;4.73;100.00
26807;BME280;14380;49.910;6.792;2023-03-05T00:33:06;99245.81;;;4.72;100.00
26807;BME280;14380;49.910;6.792;2023-03-05T00:35:38;99242.00;;;4.85;100.00
26807;BME280;14380;49.910;6.792;2023-03-05T00:38:04;99242.94;;;4.83;100.00
26807;BME280;14380;49.910;6.792;2023-03-05T00:40:34;99243.34;;;4.66;100.00
26807;BME280;14380;49.910;6.792;2023-03-05T00:43:00;99236.31;;;4.68;100.00
26807;BME280;14380;49.910;6.792;2023-03-05T00:45:27;99237.34;;;4.60;100.00
26807;BME280;14380;49.910;6.792;2023-03-05T00:47:55;99239.41;;;4.46;100.00
26807;BME280;14380;49.910;6.792;2023-03-05T00:50:21;99241.88;;;4.54;100.00
26807;BME280;14380;49.910;6.792;2023-03-05T00:52:48;99226.66;;;4.32;100.00
26807;BME280;14380;49.910;6.792;2023-03-05T00:55:14;99230.78;;;4.42;100.00
26807;BME280;14380;49.910;6.792;2023-03-05T00:57:41;99221.03;;;4.49;100.00
26807;BME280;14380;49.910;6.792;2023-03-05T01:00:09;99222.59;;;4.19;100.00
26807;BME280;14380;49.910;6.792;2023-03-05T01:02:35;99221.78;;;4.16;100.00
26807;BME280;14380;49.910;6.792;2023-03-05T01:05:04;99215.94;;;4.43;100.00
26807;BME280;14380;49.910;6.792;2023-03-05T01:07:30;99213.72;;;4.26;100.00
26807;BME280;14380;49.910;6.792;2023-03-05T01:09:57;99213.75;;;4.24;100.00
26807;BME280;14380;49.910;6.792;2023-03-05T01:12:23;99211.66;;;4.40;100.00
26807;BME280;14380;49.910;6.792;2023-03-05T01:14:50;99220.38;;;4.39;100.00
26807;BME280;14380;49.910;6.792;2023-03-05T01:17:16;99215.34;;;4.31;100.00
26807;BME280;14380;49.910;6.792;2023-03-05T01:19:43;99209.94;;;3.98;100.00
26807;BME280;14380;49.910;6.792;2023-03-05T01:22:11;99211.31;;;4.16;100.00
26807;BME280;14380;49.910;6.792;2023-03-05T01:24:37;99211.69;;;4.39;100.00
26807;BME280;14380;49.910;6.792;2023-03-05T01:27:04;99204.22;;;4.22;100.00
26807;BME280;14380;49.910;6.792;2023-03-05T01:29:30;99211.16;;;4.23;100.00
26807;BME280;14380;49.910;6.792;2023-03-05T01:31:57;99199.66;;;4.31;100.00
26807;BME280;14380;49.910;6.792;2023-03-05T01:34:23;99195.22;;;4.35;100.00
26807;BME280;14380;49.910;6.792;2023-03-05T01:36:50;99193.59;;;4.29;100.00
26807;BME280;14380;49.910;6.792;2023-03-05T01:39:18;99194.13;;;4.44;100.00
26807;BME280;14380;49.910;6.792;2023-03-05T01:41:45;99194.19;;;4.42;99.92
26807;BME280;14380;49.910;6.792;2023-03-05T01:44:20;99179.88;;;4.59;99.06
26807;BME280;14380;49.910;6.792;2023-03-05T01:46:47;99184.44;;;4.49;97.77
26807;BME280;14380;49.910;6.792;2023-03-05T01:49:18;99176.81;;;4.40;97.47
26807;BME280;14380;49.910;6.792;2023-03-05T01:51:52;99181.31;;;4.71;96.91
26807;BME280;14380;49.910;6.792;2023-03-05T01:54:26;99170.59;;;4.45;99.09
26807;BME280;14380;49.910;6.792;2023-03-05T01:56:54;99168.66;;;4.52;100.00
26807;BME280;14380;49.910;6.792;2023-03-05T01:59:23;99170.38;;;4.53;98.55
26807;BME280;14380;49.910;6.792;2023-03-05T02:01:54;99168.25;;;4.69;96.68
26807;BME280;14380;49.910;6.792;2023-03-05T02:04:25;99159.97;;;4.52;100.00
26807;BME280;14380;49.910;6.792;2023-03-05T02:06:53;99156.53;;;4.50;100.00
26807;BME280;14380;49.910;6.792;2023-03-05T02:09:21;99157.78;;;4.35;100.00
26807;BME280;14380;49.910;6.792;2023-03-05T02:11:48;99155.97;;;4.37;100.00
26807;BME280;14380;49.910;6.792;2023-03-05T02:14:15;99152.28;;;4.45;98.92
26807;BME280;14380;49.910;6.792;2023-03-05T02:16:42;99161.56;;;4.57;97.01
26807;BME280;14380;49.910;6.792;2023-03-05T02:19:10;99158.69;;;4.68;95.92
26807;BME280;14380;49.910;6.792;2023-03-05T02:21:40;99155.50;;;4.19;100.00
26807;BME280;14380;49.910;6.792;2023-03-05T02:24:11;99151.41;;;4.45;99.58
26807;BME280;14380;49.910;6.792;2023-03-05T02:26:38;99150.59;;;4.43;97.38
26807;BME280;14380;49.910;6.792;2023-03-05T02:29:06;99153.66;;;4.23;100.00
26807;BME280;14380;49.910;6.792;2023-03-05T02:31:34;99154.09;;;4.04;100.00
26807;BME280;14380;49.910;6.792;2023-03-05T02:34:04;99146.72;;;4.22;100.00
26807;BME280;14380;49.910;6.792;2023-03-05T02:36:30;99147.34;;;4.33;97.14
26807;BME280;14380;49.910;6.792;2023-03-05T02:38:58;99138.31;;;4.46;97.97
26807;BME280;14380;49.910;6.792;2023-03-05T02:41:25;99144.16;;;3.81;100.00
26807;BME280;14380;49.910;6.792;2023-03-05T02:43:51;99145.38;;;4.05;100.00
26807;BME280;14380;49.910;6.792;2023-03-05T02:46:18;99131.13;;;4.19;97.64
26807;BME280;14380;49.910;6.792;2023-03-05T02:48:44;99130.81;;;4.32;91.65
26807;BME280;14380;49.910;6.792;2023-03-05T02:51:11;99123.59;;;4.42;91.65
26807;BME280;14380;49.910;6.792;2023-03-05T02:53:38;99126.34;;;4.38;90.88
26807;BME280;14380;49.910;6.792;2023-03-05T02:56:06;99124.34;;;4.47;90.56
26807;BME280;14380;49.910;6.792;2023-03-05T02:58:32;99116.69;;;4.40;89.07
26807;BME280;14380;49.910;6.792;2023-03-05T03:00:59;99114.56;;;4.54;89.17
26807;BME280;14380;49.910;6.792;2023-03-05T03:03:25;99113.72;;;4.54;88.61
26807;BME280;14380;49.910;6.792;2023-03-05T03:05:52;99110.78;;;4.68;89.06
26807;BME280;14380;49.910;6.792;2023-03-05T03:08:18;99105.88;;;4.54;90.58
26807;BME280;14380;49.910;6.792;2023-03-05T03:10:45;99110.16;;;4.58;90.15
26807;BME280;14380;49.910;6.792;2023-03-05T03:13:12;99105.00;;;4.53;89.33
26807;BME280;14380;49.910;6.792;2023-03-05T03:15:39;99094.69;;;4.49;88.04
26807;BME280;14380;49.910;6.792;2023-03-05T03:18:05;99102.31;;;4.56;89.65
26807;BME280;14380;49.910;6.792;2023-03-05T03:20:32;99098.50;;;4.35;95.97
26807;BME280;14380;49.910;6.792;2023-03-05T03:22:59;99092.28;;;4.41;95.45
26807;BME280;14380;49.910;6.792;2023-03-05T03:25:26;99092.41;;;4.35;96.55
26807;BME280;14380;49.910;6.792;2023-03-05T03:27:52;99099.59;;;4.25;97.63
26807;BME280;14380;49.910;6.792;2023-03-05T03:30:20;99085.00;;;4.18;97.33
26807;BME280;14380;49.910;6.792;2023-03-05T03:32:47;99086.53;;;4.25;97.12
26807;BME280;14380;49.910;6.792;2023-03-05T03:35:13;99088.56;;;4.13;98.92
26807;BME280;14380;49.910;6.792;2023-03-05T03:37:39;99088.97;;;4.32;99.12
26807;BME280;14380;49.910;6.792;2023-03-05T03:40:07;99081.28;;;4.26;98.48
26807;BME280;14380;49.910;6.792;2023-03-05T03:42:34;99088.38;;;4.21;98.48
26807;BME280;14380;49.910;6.792;2023-03-05T03:45:01;99089.41;;;4.15;98.53
26807;BME280;14380;49.910;6.792;2023-03-05T03:47:29;99087.75;;;4.10;100.00
26807;BME280;14380;49.910;6.792;2023-03-05T03:49:56;99089.47;;;4.11;99.40
26807;BME280;14380;49.910;6.792;2023-03-05T03:52:23;99087.41;;;4.25;98.38
26807;BME280;14380;49.910;6.792;2023-03-05T03:54:50;99089.34;;;4.17;96.62
26807;BME280;14380;49.910;6.792;2023-03-05T03:57:17;99085.69;;;4.24;92.60
26807;BME280;14380;49.910;6.792;2023-03-05T03:59:44;99088.38;;;4.21;90.99
26807;BME280;14380;49.910;6.792;2023-03-05T04:02:11;99083.22;;;4.18;91.75
26807;BME280;14380;49.910;6.792;2023-03-05T04:04:38;99087.88;;;4.05;98.65
26807;BME280;14380;49.910;6.792;2023-03-05T04:07:05;99087.75;;;4.11;97.21
26807;BME280;14380;49.910;6.792;2023-03-05T04:09:31;99079.63;;;4.22;92.27
26807;BME280;14380;49.910;6.792;2023-03-05T04:11:58;99073.53;;;4.22;89.29
26807;BME280;14380;49.910;6.792;2023-03-05T04:14:24;99073.44;;;4.26;91.64
26807;BME280;14380;49.910;6.792;2023-03-05T04:16:51;99066.38;;;4.30;89.88
26807;BME280;14380;49.910;6.792;2023-03-05T04:19:18;99073.03;;;4.42;92.15
26807;BME280;14380;49.910;6.792;2023-03-05T04:21:46;99065.47;;;4.31;91.51
26807;BME280;14380;49.910;6.792;2023-03-05T04:24:12;99062.91;;;4.29;90.70
26807;BME280;14380;49.910;6.792;2023-03-05T04:26:39;99055.00;;;4.32;89.94
26807;BME280;14380;49.910;6.792;2023-03-05T04:29:05;99057.72;;;4.28;90.56
26807;BME280;14380;49.910;6.792;2023-03-05T04:31:32;99046.91;;;4.42;88.78
26807;BME280;14380;49.910;6.792;2023-03-05T04:33:59;99053.22;;;3.97;95.58
26807;BME280;14380;49.910;6.792;2023-03-05T04:36:25;99054.94;;;3.98;96.75
26807;BME280;14380;49.910;6.792;2023-03-05T04:38:53;99053.88;;;4.07;97.66
26807;BME280;14380;49.910;6.792;2023-03-05T04:41:19;99042.84;;;3.94;98.89
26807;BME280;14380;49.910;6.792;2023-03-05T04:43:46;99042.91;;;3.92;100.00
26807;BME280;14380;49.910;6.792;2023-03-05T04:46:12;99043.47;;;4.04;98.06
26807;BME280;14380;49.910;6.792;2023-03-05T04:48:39;99036.84;;;3.90;99.77
26807;BME280;14380;49.910;6.792;2023-03-05T04:51:06;99032.53;;;3.87;100.00
26807;BME280;14380;49.910;6.792;2023-03-05T04:53:32;99028.91;;;3.95;100.00
26807;BME280;14380;49.910;6.792;2023-03-05T04:56:00;99026.97;;;4.03;100.00
26807;BME280;14380;49.910;6.792;2023-03-05T04:58:27;99023.69;;;3.95;100.00
26807;BME280;14380;49.910;6.792;2023-03-05T05:00:59;99030.81;;;3.88;100.00
26807;BME280;14380;49.910;6.792;2023-03-05T05:03:26;99024.50;;;3.97;100.00
26807;BME280;14380;49.910;6.792;2023-03-05T05:05:58;99023.69;;;3.95;100.00
26807;BME280;14380;49.910;6.792;2023-03-05T05:08:27;99017.97;;;3.79;100.00
26807;BME280;14380;49.910;6.792;2023-03-05T05:10:55;99029.31;;;3.76;100.00
26807;BME280;14380;49.910;6.792;2023-03-05T05:13:23;99024.84;;;3.83;100.00
26807;BME280;14380;49.910;6.792;2023-03-05T05:15:49;99017.13;;;3.77;100.00
26807;BME280;14380;49.910;6.792;2023-03-05T05:18:16;99026.50;;;3.85;100.00
26807;BME280;14380;49.910;6.792;2023-03-05T05:20:43;99015.09;;;3.90;100.00
26807;BME280;14380;49.910;6.792;2023-03-05T05:23:09;99018.56;;;3.52;100.00
26807;BME280;14380;49.910;6.792;2023-03-05T05:25:36;99016.59;;;3.62;100.00
26807;BME280;14380;49.910;6.792;2023-03-05T05:28:03;99014.81;;;3.64;100.00
26807;BME280;14380;49.910;6.792;2023-03-05T05:30:31;99016.44;;;3.68;100.00
26807;BME280;14380;49.910;6.792;2023-03-05T05:32:57;99011.41;;;3.61;100.00
26807;BME280;14380;49.910;6.792;2023-03-05T05:35:24;99010.34;;;3.69;100.00
26807;BME280;14380;49.910;6.792;2023-03-05T05:37:50;99001.66;;;3.69;100.00
26807;BME280;14380;49.910;6.792;2023-03-05T05:40:17;99004.91;;;3.77;100.00
26807;BME280;14380;49.910;6.792;2023-03-05T05:42:43;98997.22;;;3.72;100.00
26807;BME280;14380;49.910;6.792;2023-03-05T05:45:10;99008.22;;;3.48;100.00
26807;BME280;14380;49.910;6.792;2023-03-05T05:47:38;99000.84;;;3.65;100.00
26807;BME280;14380;49.910;6.792;2023-03-05T05:50:05;98995.59;;;3.67;100.00
26807;BME280;14380;49.910;6.792;2023-03-05T05:52:32;99006.13;;;3.64;100.00
26807;BME280;14380;49.910;6.792;2023-03-05T05:54:58;98996.56;;;3.63;100.00
26807;BME280;14380;49.910;6.792;2023-03-05T05:57:25;99007.47;;;3.42;100.00
26807;BME280;14380;49.910;6.792;2023-03-05T05:59:51;99003.53;;;3.62;100.00
26807;BME280;14380;49.910;6.792;2023-03-05T06:02:18;99001.88;;;3.58;100.00
26807;BME280;14380;49.910;6.792;2023-03-05T06:04:45;98997.03;;;3.80;100.00
26807;BME280;14380;49.910;6.792;2023-03-05T06:07:12;98995.50;;;3.71;100.00
26807;BME280;14380;49.910;6.792;2023-03-05T06:09:38;98995.78;;;3.59;100.00
26807;BME280;14380;49.910;6.792;2023-03-05T06:12:06;98998.31;;;3.62;100.00
26807;BME280;14380;49.910;6.792;2023-03-05T06:14:32;98991.22;;;3.67;100.00
26807;BME280;14380;49.910;6.792;2023-03-05T06:16:59;98995.59;;;3.67;100.00
26807;BME280;14380;49.910;6.792;2023-03-05T06:19:25;98994.94;;;3.59;100.00
26807;BME280;14380;49.910;6.792;2023-03-05T06:21:53;98996.66;;;3.60;100.00
26807;BME280;14380;49.910;6.792;2023-03-05T06:24:20;99001.88;;;3.60;100.00
26807;BME280;14380;49.910;6.792;2023-03-05T06:26:47;98996.38;;;3.72;100.00
26807;BME280;14380;49.910;6.792;2023-03-05T06:29:14;98995.75;;;3.61;100.00
26807;BME280;14380;49.910;6.792;2023-03-05T06:31:40;98994.09;;;3.56;100.00
26807;BME280;14380;49.910;6.792;2023-03-05T06:34:07;98998.34;;;3.61;100.00
26807;BME280;14380;49.910;6.792;2023-03-05T06:36:33;98993.69;;;3.74;100.00
26807;BME280;14380;49.910;6.792;2023-03-05T06:39:01;98999.00;;;3.70;100.00
26807;BME280;14380;49.910;6.792;2023-03-05T06:41:30;98993.91;;;3.64;100.00
26807;BME280;14380;49.910;6.792;2023-03-05T06:43:58;98993.13;;;3.61;100.00
26807;BME280;14380;49.910;6.792;2023-03-05T06:46:27;98986.00;;;3.67;100.00
26807;BME280;14380;49.910;6.792;2023-03-05T06:48:55;98992.09;;;3.68;100.00
26807;BME280;14380;49.910;6.792;2023-03-05T06:51:24;98992.69;;;3.79;100.00
26807;BME280;14380;49.910;6.792;2023-03-05T06:53:51;98991.09;;;3.74;100.00
26807;BME280;14380;49.910;6.792;2023-03-05T06:56:19;98992.75;;;3.78;100.00
26807;BME280;14380;49.910;6.792;2023-03-05T06:58:47;98990.91;;;3.81;100.00
26807;BME280;14380;49.910;6.792;2023-03-05T07:01:14;98990.88;;;3.83;100.00
26807;BME280;14380;49.910;6.792;2023-03-05T07:03:42;98991.06;;;3.75;100.00
26807;BME280;14380;49.910;6.792;2023-03-05T07:06:10;98991.84;;;3.79;100.00
26807;BME280;14380;49.910;6.792;2023-03-05T07:08:37;98985.59;;;3.84;100.00
26807;BME280;14380;49.910;6.792;2023-03-05T07:11:08;98993.50;;;3.81;100.00
26807;BME280;14380;49.910;6.792;2023-03-05T07:13:36;98986.28;;;3.93;100.00
26807;BME280;14380;49.910;6.792;2023-03-05T07:16:04;98983.66;;;3.94;100.00
26807;BME280;14380;49.910;6.792;2023-03-05T07:18:31;98986.34;;;3.91;100.00
26807;BME280;14380;49.910;6.792;2023-03-05T07:21:00;98985.09;;;4.06;100.00
26807;BME280;14380;49.910;6.792;2023-03-05T07:23:27;98982.97;;;3.86;100.00
26807;BME280;14380;49.910;6.792;2023-03-05T07:25:53;98982.56;;;4.03;100.00
26807;BME280;14380;49.910;6.792;2023-03-05T07:28:21;98982.66;;;3.98;100.00
26807;BME280;14380;49.910;6.792;2023-03-05T07:30:55;98977.25;;;4.06;100.00
26807;BME280;14380;49.910;6.792;2023-03-05T07:33:22;98976.50;;;4.01;100.00
26807;BME280;14380;49.910;6.792;2023-03-05T07:35:49;98979.00;;;4.06;100.00
26807;BME280;14380;49.910;6.792;2023-03-05T07:38:15;98976.44;;;4.04;100.00
26807;BME280;14380;49.910;6.792;2023-03-05T07:40:42;98975.59;;;4.02;100.00
26807;BME280;14380;49.910;6.792;2023-03-05T07:43:08;98976.22;;;4.13;100.00
26807;BME280;14380;49.910;6.792;2023-03-05T07:45:38;98971.75;;;4.17;100.00
26807;BME280;14380;49.910;6.792;2023-03-05T07:48:07;98974.81;;;3.98;100.00
26807;BME280;14380;49.910;6.792;2023-03-05T07:50:34;98969.34;;;4.09;100.00
26807;BME280;14380;49.910;6.792;2023-03-05T07:53:00;98972.03;;;4.06;100.00
26807;BME280;14380;49.910;6.792;2023-03-05T07:55:27;98965.56;;;4.20;100.00
26807;BME280;14380;49.910;6.792;2023-03-05T07:57:54;98971.88;;;4.12;100.00
26807;BME280;14380;49.910;6.792;2023-03-05T08:00:21;98966.38;;;4.22;100.00
26807;BME280;14380;49.910;6.792;2023-03-05T08:02:47;98971.34;;;4.32;100.00
26807;BME280;14380;49.910;6.792;2023-03-05T08:05:16;98969.81;;;4.24;100.00
26807;BME280;14380;49.910;6.792;2023-03-05T08:07:43;98968.69;;;4.34;100.00
26807;BME280;14380;49.910;6.792;2023-03-05T08:10:10;98960.97;;;4.29;100.00
26807;BME280;14380;49.910;6.792;2023-03-05T08:12:36;98963.88;;;4.19;100.00
26807;BME280;14380;49.910;6.792;2023-03-05T08:15:03;98956.81;;;4.22;100.00
26807;BME280;14380;49.910;6.792;2023-03-05T08:17:30;98960.25;;;4.23;100.00
26807;BME280;14380;49.910;6.792;2023-03-05T08:19:56;98963.75;;;4.23;100.00
26807;BME280;14380;49.910;6.792;2023-03-05T08:22:25;98959.38;;;4.24;100.00
26807;BME280;14380;49.910;6.792;2023-03-05T08:24:52;98961.34;;;4.15;100.00
26807;BME280;14380;49.910;6.792;2023-03-05T08:27:18;98956.75;;;4.24;100.00
26807;BME280;14380;49.910;6.792;2023-03-05T08:29:45;98952.91;;;4.39;100.00
26807;BME280;14380;49.910;6.792;2023-03-05T08:32:11;98951.00;;;4.44;100.00
26807;BME280;14380;49.910;6.792;2023-03-05T08:34:38;98953.75;;;4.39;100.00
26807;BME280;14380;49.910;6.792;2023-03-05T08:37:04;98953.53;;;4.14;100.00
26807;BME280;14380;49.910;6.792;2023-03-05T08:39:34;98956.13;;;4.15;100.00
26807;BME280;14380;49.910;6.792;2023-03-05T08:42:01;98949.88;;;4.21;100.00
26807;BME280;14380;49.910;6.792;2023-03-05T08:44:27;98953.66;;;4.42;100.00
26807;BME280;14380;49.910;6.792;2023-03-05T08:46:54;98948.50;;;4.41;100.00
26807;BME280;14380;49.910;6.792;2023-03-05T08:49:20;98948.50;;;4.41;100.00
26807;BME280;14380;49.910;6.792;2023-03-05T08:51:47;98948.16;;;4.20;100.00
26807;BME280;14380;49.910;6.792;2023-03-05T08:54:14;98953.00;;;4.01;100.00
26807;BME280;14380;49.910;6.792;2023-03-05T08:56:41;98944.69;;;4.53;100.00
26807;BME280;14380;49.910;6.792;2023-03-05T08:59:08;98941.53;;;4.71;100.00
26807;BME280;14380;49.910;6.792;2023-03-05T09:01:35;98948.66;;;4.35;100.00
26807;BME280;14380;49.910;6.792;2023-03-05T09:04:01;98940.91;;;4.30;100.00
26807;BME280;14380;49.910;6.792;2023-03-05T09:06:28;98941.16;;;4.54;100.00
26807;BME280;14380;49.910;6.792;2023-03-05T09:08:55;98935.06;;;4.53;100.00
26807;BME280;14380;49.910;6.792;2023-03-05T09:11:21;98930.78;;;4.51;100.00
26807;BME280;14380;49.910;6.792;2023-03-05T09:13:49;98922.47;;;4.68;100.00
26807;BME280;14380;49.910;6.792;2023-03-05T09:16:18;98923.84;;;4.81;100.00
26807;BME280;14380;49.910;6.792;2023-03-05T09:18:44;98925.16;;;4.65;99.82
26807;BME280;14380;49.910;6.792;2023-03-05T09:21:13;98916.50;;;4.93;98.48
26807;BME280;14380;49.910;6.792;2023-03-05T09:23:40;98925.66;;;4.46;96.95
26807;BME280;14380;49.910;6.792;2023-03-05T09:26:09;98914.63;;;4.68;97.18
26807;BME280;14380;49.910;6.792;2023-03-05T09:28:36;98915.81;;;5.16;95.93
26807;BME280;14380;49.910;6.792;2023-03-05T09:31:05;98914.16;;;5.13;96.10
26807;BME280;14380;49.910;6.792;2023-03-05T09:33:33;98915.09;;;5.11;95.97
26807;BME280;14380;49.910;6.792;2023-03-05T09:36:00;98915.00;;;5.14;95.66
26807;BME280;14380;49.910;6.792;2023-03-05T09:38:27;98915.31;;;5.03;94.39
26807;BME280;14380;49.910;6.792;2023-03-05T09:40:57;98907.34;;;5.08;95.11
26807;BME280;14380;49.910;6.792;2023-03-05T09:43:33;98907.03;;;5.18;94.21
26807;BME280;14380;49.910;6.792;2023-03-05T09:46:26;98899.31;;;4.84;94.62
26807;BME280;14380;49.910;6.792;2023-03-05T09:48:59;98902.53;;;5.22;93.27
26807;BME280;14380;49.910;6.792;2023-03-05T09:51:34;98890.63;;;5.12;94.37
26807;BME280;14380;49.910;6.792;2023-03-05T09:54:05;98898.06;;;5.26;94.63
26807;BME280;14380;49.910;6.792;2023-03-05T09:56:38;98895.66;;;5.46;92.73
26807;BME280;14380;49.910;6.792;2023-03-05T09:59:16;98898.03;;;5.54;92.14
26807;BME280;14380;49.910;6.792;2023-03-05T10:01:47;98894.88;;;5.16;91.85
26807;BME280;14380;49.910;6.792;2023-03-05T10:04:18;98898.44;;;4.85;92.14
26807;BME280;14380;49.910;6.792;2023-03-05T10:06:49;98894.97;;;4.84;91.11
26807;BME280;14380;49.910;6.792;2023-03-05T10:09:27;98892.06;;;4.94;90.71
26807;BME280;14380;49.910;6.792;2023-03-05T10:12:01;98907.84;;;5.20;90.30
26807;BME280;14380;49.910;6.792;2023-03-05T10:14:31;98901.06;;;5.42;86.84
26807;BME280;14380;49.910;6.792;2023-03-05T10:17:31;98899.16;;;5.18;85.35
26807;BME280;14380;49.910;6.792;2023-03-05T10:20:21;98890.13;;;5.29;85.28
26807;BME280;14380;49.910;6.792;2023-03-05T10:23:04;98884.94;;;5.27;85.03
26807;BME280;14380;49.910;6.792;2023-03-05T10:25:51;98884.38;;;5.44;85.42
26807;BME280;14380;49.910;6.792;2023-03-05T10:28:22;98892.09;;;5.76;84.55
26807;BME280;14380;49.910;6.792;2023-03-05T10:31:03;98890.69;;;5.65;84.57
26807;BME280;14380;49.910;6.792;2023-03-05T10:33:38;98881.72;;;5.73;84.37
26807;BME280;14380;49.910;6.792;2023-03-05T10:36:14;98870.34;;;5.47;86.67
26807;BME280;14380;49.910;6.792;2023-03-05T10:39:04;98873.22;;;5.66;84.08
26807;BME280;14380;49.910;6.792;2023-03-05T10:41:40;98866.19;;;5.66;84.23
26807;BME280;14380;49.910;6.792;2023-03-05T10:44:10;98865.69;;;5.82;83.14
26807;BME280;14380;49.910;6.792;2023-03-05T10:46:40;98857.25;;;5.47;82.04
26807;BME280;14380;49.910;6.792;2023-03-05T10:49:16;98863.59;;;5.92;84.05
26807;BME280;14380;49.910;6.792;2023-03-05T10:51:50;98856.69;;;5.64;80.18
26807;BME280;14380;49.910;6.792;2023-03-05T10:54:22;98861.38;;;5.54;79.88
26807;BME280;14380;49.910;6.792;2023-03-05T10:57:01;98858.81;;;4.97;81.33
26807;BME280;14380;49.910;6.792;2023-03-05T10:59:28;98860.66;;;5.22;82.44
26807;BME280;14380;49.910;6.792;2023-03-05T11:02:01;98854.59;;;4.93;83.94
26807;BME280;14380;49.910;6.792;2023-03-05T11:04:32;98849.69;;;5.90;82.21
26807;BME280;14380;49.910;6.792;2023-03-05T11:07:05;98847.16;;;5.61;81.07
26807;BME280;14380;49.910;6.792;2023-03-05T11:09:32;98839.56;;;6.06;80.72
26807;BME280;14380;49.910;6.792;2023-03-05T11:12:13;98832.97;;;5.94;80.53
26807;BME280;14380;49.910;6.792;2023-03-05T11:14:43;98828.75;;;6.15;78.68
26807;BME280;14380;49.910;6.792;2023-03-05T11:17:25;98820.84;;;6.17;78.79
26807;BME280;14380;49.910;6.792;2023-03-05T11:19:54;98815.59;;;6.40;77.28
26807;BME280;14380;49.910;6.792;2023-03-05T11:22:22;98812.34;;;6.58;79.20
26807;BME280;14380;49.910;6.792;2023-03-05T11:25:14;98802.94;;;6.28;76.16
26807;BME280;14380;49.910;6.792;2023-03-05T11:27:48;98794.56;;;6.64;78.62
26807;BME280;14380;49.910;6.792;2023-03-05T11:30:18;98790.66;;;6.98;75.32
26807;BME280;14380;49.910;6.792;2023-03-05T11:32:45;98783.44;;;7.26;74.49
26807;BME280;14380;49.910;6.792;2023-03-05T11:35:29;98786.84;;;7.28;74.35
26807;BME280;14380;49.910;6.792;2023-03-05T11:37:59;98777.81;;;7.13;73.09
26807;BME280;14380;49.910;6.792;2023-03-05T11:40:27;98782.84;;;7.61;73.78
26807;BME280;14380;49.910;6.792;2023-03-05T11:42:57;98778.03;;;7.50;72.50
26807;BME280;14380;49.910;6.792;2023-03-05T11:45:26;98774.50;;;7.51;72.15
26807;BME280;14380;49.910;6.792;2023-03-05T11:47:55;98777.72;;;7.78;71.40
26807;BME280;14380;49.910;6.792;2023-03-05T11:50:27;98770.53;;;7.82;68.69
26807;BME280;14380;49.910;6.792;2023-03-05T11:52:56;98772.41;;;7.59;67.67
26807;BME280;14380;49.910;6.792;2023-03-05T11:55:26;98770.34;;;7.66;68.07
26807;BME280;14380;49.910;6.792;2023-03-05T11:58:02;98766.47;;;7.33;66.05
26807;BME280;14380;49.910;6.792;2023-03-05T12:00:36;98764.97;;;7.89;67.56
26807;BME280;14380;49.910;6.792;2023-03-05T12:03:10;98752.22;;;7.80;67.56
26807;BME280;14380;49.910;6.792;2023-03-05T12:05:41;98751.97;;;7.66;67.15
26807;BME280;14380;49.910;6.792;2023-03-05T12:08:13;98750.03;;;7.50;66.10
26807;BME280;14380;49.910;6.792;2023-03-05T12:10:40;98746.00;;;7.21;66.69
26807;BME280;14380;49.910;6.792;2023-03-05T12:13:11;98745.03;;;7.01;66.88
26807;BME280;14380;49.910;6.792;2023-03-05T12:15:51;98740.00;;;7.17;68.04
26807;BME280;14380;49.910;6.792;2023-03-05T12:18:35;98735.44;;;7.00;68.31
26807;BME280;14380;49.910;6.792;2023-03-05T12:21:06;98729.31;;;6.79;66.42
26807;BME280;14380;49.910;6.792;2023-03-05T12:23:47;98732.09;;;6.96;69.50
26807;BME280;14380;49.910;6.792;2023-03-05T12:26:15;98727.75;;;7.18;69.39
26807;BME280;14380;49.910;6.792;2023-03-05T12:28:55;98721.28;;;7.04;67.25
26807;BME280;14380;49.910;6.792;2023-03-05T12:31:36;98717.34;;;7.35;69.01
26807;BME280;14380;49.910;6.792;2023-03-05T12:37:08;98703.78;;;7.05;68.39
26807;BME280;14380;49.910;6.792;2023-03-05T12:39:47;98697.59;;;7.26;68.37
26807;BME280;14380;49.910;6.792;2023-03-05T12:42:56;98694.22;;;6.81;67.57
26807;BME280;14380;49.910;6.792;2023-03-05T12:45:26;98681.91;;;7.46;67.21
26807;BME280;14380;49.910;6.792;2023-03-05T12:50:57;98679.00;;;7.52;67.79
26807;BME280;14380;49.910;6.792;2023-03-05T12:53:25;98676.94;;;7.19;69.33
26807;BME280;14380;49.910;6.792;2023-03-05T12:55:58;98668.88;;;7.03;69.45
26807;BME280;14380;49.910;6.792;2023-03-05T12:58:33;98670.50;;;7.66;68.93
26807;BME280;14380;49.910;6.792;2023-03-05T13:01:05;98659.09;;;7.27;68.41
26807;BME280;14380;49.910;6.792;2023-03-05T13:03:39;98663.34;;;7.29;68.45
26807;BME280;14380;49.910;6.792;2023-03-05T13:06:23;98668.31;;;7.36;69.68
26807;BME280;14380;49.910;6.792;2023-03-05T13:08:57;98651.41;;;7.02;67.78
26807;BME280;14380;49.910;6.792;2023-03-05T13:11:24;98650.72;;;7.17;68.98
26807;BME280;14380;49.910;6.792;2023-03-05T13:13:52;98647.78;;;7.25;69.26
26807;BME280;14380;49.910;6.792;2023-03-05T13:16:21;98641.28;;;7.34;68.64
26807;BME280;14380;49.910;6.792;2023-03-05T13:18:50;98643.09;;;6.69;68.67
26807;BME280;14380;49.910;6.792;2023-03-05T13:21:19;98644.13;;;6.65;68.65